sensor_id;sensor_type;location;lat;lon;timestamp;temperature;humidity
40127;DHT22;25836;51.148;6.948;2023-01-13T00:00:30;18.70;60.90
40127;DHT22;25836;51.148;6.948;2023-01-13T00:01:06;18.70;61.80
40127;DHT22;25836;51.148;6.948;2023-01-13T00:01:37;18.70;61.70
40127;DHT22;25836;51.148;6.948;2023-01-13T00:02:09;18.60;62.20
40127;DHT22;25836;51.148;6.948;2023-01-13T00:02:41;18.70;61.80
40127;DHT22;25836;51.148;6.948;2023-01-13T00:03:12;18.60;62.10
40127;DHT22;25836;51.148;6.948;2023-01-13T00:03:43;18.60;61.80
40127;DHT22;25836;51.148;6.948;2023-01-13T00:04:46;18.70;61.10
40127;DHT22;25836;51.148;6.948;2023-01-13T00:05:17;18.70;61.90
40127;DHT22;25836;51.148;6.948;2023-01-13T00:05:49;18.60;61.60
40127;DHT22;25836;51.148;6.948;2023-01-13T00:06:23;18.60;61.70
40127;DHT22;25836;51.148;6.948;2023-01-13T00:06:55;18.60;61.70
40127;DHT22;25836;51.148;6.948;2023-01-13T00:07:27;18.70;61.60
40127;DHT22;25836;51.148;6.948;2023-01-13T00:07:58;18.60;61.70
40127;DHT22;25836;51.148;6.948;2023-01-13T00:08:29;18.60;61.70
40127;DHT22;25836;51.148;6.948;2023-01-13T00:09:01;18.60;61.70
40127;DHT22;25836;51.148;6.948;2023-01-13T00:09:32;18.60;61.70
40127;DHT22;25836;51.148;6.948;2023-01-13T00:10:03;18.60;61.70
40127;DHT22;25836;51.148;6.948;2023-01-13T00:10:36;18.60;61.70
40127;DHT22;25836;51.148;6.948;2023-01-13T00:11:08;18.60;61.70
40127;DHT22;25836;51.148;6.948;2023-01-13T00:11:39;18.60;61.90
40127;DHT22;25836;51.148;6.948;2023-01-13T00:12:11;18.60;62.00
40127;DHT22;25836;51.148;6.948;2023-01-13T00:12:42;18.60;62.00
40127;DHT22;25836;51.148;6.948;2023-01-13T00:13:14;18.60;61.80
40127;DHT22;25836;51.148;6.948;2023-01-13T00:13:46;18.60;61.80
40127;DHT22;25836;51.148;6.948;2023-01-13T00:14:17;18.60;61.90
40127;DHT22;25836;51.148;6.948;2023-01-13T00:14:48;18.60;61.80
40127;DHT22;25836;51.148;6.948;2023-01-13T00:15:19;18.60;61.90
40127;DHT22;25836;51.148;6.948;2023-01-13T00:15:54;18.70;61.90
40127;DHT22;25836;51.148;6.948;2023-01-13T00:16:25;18.60;61.90
40127;DHT22;25836;51.148;6.948;2023-01-13T00:16:57;18.50;61.90
40127;DHT22;25836;51.148;6.948;2023-01-13T00:17:29;18.60;62.00
40127;DHT22;25836;51.148;6.948;2023-01-13T00:18:00;18.60;61.90
40127;DHT22;25836;51.148;6.948;2023-01-13T00:18:33;18.60;62.10
40127;DHT22;25836;51.148;6.948;2023-01-13T00:19:04;18.60;62.00
40127;DHT22;25836;51.148;6.948;2023-01-13T00:19:35;18.60;62.00
40127;DHT22;25836;51.148;6.948;2023-01-13T00:20:06;18.60;62.10
40127;DHT22;25836;51.148;6.948;2023-01-13T00:20:38;18.60;61.90
40127;DHT22;25836;51.148;6.948;2023-01-13T00:21:12;18.60;61.50
40127;DHT22;25836;51.148;6.948;2023-01-13T00:21:43;18.50;61.90
40127;DHT22;25836;51.148;6.948;2023-01-13T00:22:15;18.60;62.00
40127;DHT22;25836;51.148;6.948;2023-01-13T00:22:46;18.50;61.80
40127;DHT22;25836;51.148;6.948;2023-01-13T00:23:17;18.60;61.90
40127;DHT22;25836;51.148;6.948;2023-01-13T00:23:50;18.60;62.00
40127;DHT22;25836;51.148;6.948;2023-01-13T00:24:21;18.60;61.90
40127;DHT22;25836;51.148;6.948;2023-01-13T00:24:52;18.50;61.90
40127;DHT22;25836;51.148;6.948;2023-01-13T00:25:24;18.60;62.00
40127;DHT22;25836;51.148;6.948;2023-01-13T00:25:55;18.50;62.00
40127;DHT22;25836;51.148;6.948;2023-01-13T00:26:27;18.50;62.00
40127;DHT22;25836;51.148;6.948;2023-01-13T00:27:03;18.50;62.60
40127;DHT22;25836;51.148;6.948;2023-01-13T00:27:34;18.50;62.30
40127;DHT22;25836;51.148;6.948;2023-01-13T00:28:39;18.50;61.40
40127;DHT22;25836;51.148;6.948;2023-01-13T00:29:10;18.50;62.10
40127;DHT22;25836;51.148;6.948;2023-01-13T00:29:41;18.50;62.20
40127;DHT22;25836;51.148;6.948;2023-01-13T00:30:13;18.50;62.20
40127;DHT22;25836;51.148;6.948;2023-01-13T00:30:44;18.50;62.20
40127;DHT22;25836;51.148;6.948;2023-01-13T00:31:17;18.50;62.20
40127;DHT22;25836;51.148;6.948;2023-01-13T00:31:50;18.50;62.30
40127;DHT22;25836;51.148;6.948;2023-01-13T00:32:54;18.50;61.30
40127;DHT22;25836;51.148;6.948;2023-01-13T00:33:26;18.50;62.40
40127;DHT22;25836;51.148;6.948;2023-01-13T00:33:57;18.50;61.30
40127;DHT22;25836;51.148;6.948;2023-01-13T00:34:28;18.50;62.00
40127;DHT22;25836;51.148;6.948;2023-01-13T00:35:00;18.50;62.10
40127;DHT22;25836;51.148;6.948;2023-01-13T00:35:31;18.50;61.70
40127;DHT22;25836;51.148;6.948;2023-01-13T00:36:03;18.50;61.70
40127;DHT22;25836;51.148;6.948;2023-01-13T00:36:36;18.50;61.70
40127;DHT22;25836;51.148;6.948;2023-01-13T00:37:07;18.50;61.90
40127;DHT22;25836;51.148;6.948;2023-01-13T00:37:38;18.50;61.80
40127;DHT22;25836;51.148;6.948;2023-01-13T00:38:10;18.50;61.80
40127;DHT22;25836;51.148;6.948;2023-01-13T00:39:12;18.50;61.10
40127;DHT22;25836;51.148;6.948;2023-01-13T00:40:16;18.50;60.90
40127;DHT22;25836;51.148;6.948;2023-01-13T00:40:54;18.50;61.80
40127;DHT22;25836;51.148;6.948;2023-01-13T00:41:25;18.50;61.70
40127;DHT22;25836;51.148;6.948;2023-01-13T00:41:58;18.50;62.00
40127;DHT22;25836;51.148;6.948;2023-01-13T00:42:47;18.60;61.90
40127;DHT22;25836;51.148;6.948;2023-01-13T00:43:37;18.50;61.60
40127;DHT22;25836;51.148;6.948;2023-01-13T00:44:08;18.40;61.80
40127;DHT22;25836;51.148;6.948;2023-01-13T00:44:39;18.40;62.00
40127;DHT22;25836;51.148;6.948;2023-01-13T00:45:10;18.40;61.90
40127;DHT22;25836;51.148;6.948;2023-01-13T00:45:41;18.40;61.70
40127;DHT22;25836;51.148;6.948;2023-01-13T00:46:14;18.40;61.90
40127;DHT22;25836;51.148;6.948;2023-01-13T00:46:45;18.40;61.50
40127;DHT22;25836;51.148;6.948;2023-01-13T00:47:16;18.40;61.30
40127;DHT22;25836;51.148;6.948;2023-01-13T00:47:47;18.40;61.60
40127;DHT22;25836;51.148;6.948;2023-01-13T00:48:22;18.40;61.50
40127;DHT22;25836;51.148;6.948;2023-01-13T00:48:53;18.40;61.50
40127;DHT22;25836;51.148;6.948;2023-01-13T00:49:24;18.40;61.50
40127;DHT22;25836;51.148;6.948;2023-01-13T00:51:01;18.40;61.20
40127;DHT22;25836;51.148;6.948;2023-01-13T00:51:34;18.40;62.00
40127;DHT22;25836;51.148;6.948;2023-01-13T00:52:05;18.40;62.00
40127;DHT22;25836;51.148;6.948;2023-01-13T00:52:36;18.40;62.00
40127;DHT22;25836;51.148;6.948;2023-01-13T00:53:06;18.40;62.10
40127;DHT22;25836;51.148;6.948;2023-01-13T00:53:41;18.30;61.80
40127;DHT22;25836;51.148;6.948;2023-01-13T00:54:12;18.40;61.80
40127;DHT22;25836;51.148;6.948;2023-01-13T00:54:43;18.40;61.70
40127;DHT22;25836;51.148;6.948;2023-01-13T00:55:15;18.40;61.70
40127;DHT22;25836;51.148;6.948;2023-01-13T00:55:46;18.40;61.40
40127;DHT22;25836;51.148;6.948;2023-01-13T00:56:19;18.40;61.70
40127;DHT22;25836;51.148;6.948;2023-01-13T00:56:51;18.40;61.60
40127;DHT22;25836;51.148;6.948;2023-01-13T00:57:22;18.40;61.80
40127;DHT22;25836;51.148;6.948;2023-01-13T00:57:52;18.40;62.50
40127;DHT22;25836;51.148;6.948;2023-01-13T00:58:24;18.30;62.30
40127;DHT22;25836;51.148;6.948;2023-01-13T00:58:55;18.40;61.80
40127;DHT22;25836;51.148;6.948;2023-01-13T00:59:28;18.30;61.50
40127;DHT22;25836;51.148;6.948;2023-01-13T01:00:00;18.40;61.60
40127;DHT22;25836;51.148;6.948;2023-01-13T01:00:31;18.40;62.50
40127;DHT22;25836;51.148;6.948;2023-01-13T01:01:02;18.30;60.90
40127;DHT22;25836;51.148;6.948;2023-01-13T01:01:35;18.40;61.60
40127;DHT22;25836;51.148;6.948;2023-01-13T01:02:06;18.40;61.90
40127;DHT22;25836;51.148;6.948;2023-01-13T01:02:37;18.40;61.60
40127;DHT22;25836;51.148;6.948;2023-01-13T01:03:08;18.50;61.80
40127;DHT22;25836;51.148;6.948;2023-01-13T01:03:46;18.40;61.70
40127;DHT22;25836;51.148;6.948;2023-01-13T01:04:17;18.30;61.50
40127;DHT22;25836;51.148;6.948;2023-01-13T01:04:49;18.40;61.30
40127;DHT22;25836;51.148;6.948;2023-01-13T01:05:20;18.40;61.60
40127;DHT22;25836;51.148;6.948;2023-01-13T01:05:51;18.40;61.80
40127;DHT22;25836;51.148;6.948;2023-01-13T01:06:24;18.30;61.50
40127;DHT22;25836;51.148;6.948;2023-01-13T01:06:55;18.30;61.60
40127;DHT22;25836;51.148;6.948;2023-01-13T01:07:26;18.40;61.80
40127;DHT22;25836;51.148;6.948;2023-01-13T01:07:58;18.30;61.50
40127;DHT22;25836;51.148;6.948;2023-01-13T01:08:29;18.40;61.50
40127;DHT22;25836;51.148;6.948;2023-01-13T01:09:00;18.40;61.60
40127;DHT22;25836;51.148;6.948;2023-01-13T01:09:32;18.40;61.80
40127;DHT22;25836;51.148;6.948;2023-01-13T01:10:04;18.30;62.90
40127;DHT22;25836;51.148;6.948;2023-01-13T01:10:35;18.40;62.00
40127;DHT22;25836;51.148;6.948;2023-01-13T01:11:10;18.30;62.40
40127;DHT22;25836;51.148;6.948;2023-01-13T01:11:42;18.30;61.70
40127;DHT22;25836;51.148;6.948;2023-01-13T01:12:13;18.30;61.70
40127;DHT22;25836;51.148;6.948;2023-01-13T01:12:44;18.30;62.00
40127;DHT22;25836;51.148;6.948;2023-01-13T01:13:15;18.30;62.10
40127;DHT22;25836;51.148;6.948;2023-01-13T01:13:47;18.30;61.90
40127;DHT22;25836;51.148;6.948;2023-01-13T01:14:21;18.30;61.70
40127;DHT22;25836;51.148;6.948;2023-01-13T01:14:52;18.30;61.70
40127;DHT22;25836;51.148;6.948;2023-01-13T01:15:24;18.30;61.60
40127;DHT22;25836;51.148;6.948;2023-01-13T01:15:55;18.30;61.70
40127;DHT22;25836;51.148;6.948;2023-01-13T01:16:27;18.30;61.60
40127;DHT22;25836;51.148;6.948;2023-01-13T01:16:59;18.30;61.70
40127;DHT22;25836;51.148;6.948;2023-01-13T01:17:30;18.30;61.50
40127;DHT22;25836;51.148;6.948;2023-01-13T01:18:02;18.30;61.40
40127;DHT22;25836;51.148;6.948;2023-01-13T01:18:33;18.30;61.50
40127;DHT22;25836;51.148;6.948;2023-01-13T01:19:05;18.30;61.70
40127;DHT22;25836;51.148;6.948;2023-01-13T01:19:37;18.30;61.80
40127;DHT22;25836;51.148;6.948;2023-01-13T01:20:09;18.30;61.70
40127;DHT22;25836;51.148;6.948;2023-01-13T01:20:40;18.30;61.30
40127;DHT22;25836;51.148;6.948;2023-01-13T01:21:13;18.30;61.30
40127;DHT22;25836;51.148;6.948;2023-01-13T01:21:44;18.30;61.30
40127;DHT22;25836;51.148;6.948;2023-01-13T01:22:15;18.30;61.50
40127;DHT22;25836;51.148;6.948;2023-01-13T01:22:47;18.30;61.60
40127;DHT22;25836;51.148;6.948;2023-01-13T01:23:18;18.30;61.50
40127;DHT22;25836;51.148;6.948;2023-01-13T01:23:49;18.30;61.20
40127;DHT22;25836;51.148;6.948;2023-01-13T01:24:21;18.30;61.10
40127;DHT22;25836;51.148;6.948;2023-01-13T01:24:52;18.30;61.20
40127;DHT22;25836;51.148;6.948;2023-01-13T01:25:23;18.30;61.60
40127;DHT22;25836;51.148;6.948;2023-01-13T01:25:59;18.30;61.50
40127;DHT22;25836;51.148;6.948;2023-01-13T01:26:31;18.30;61.30
40127;DHT22;25836;51.148;6.948;2023-01-13T01:27:02;18.30;61.40
40127;DHT22;25836;51.148;6.948;2023-01-13T01:27:33;18.20;61.70
40127;DHT22;25836;51.148;6.948;2023-01-13T01:28:04;18.30;61.60
40127;DHT22;25836;51.148;6.948;2023-01-13T01:28:35;18.30;61.60
40127;DHT22;25836;51.148;6.948;2023-01-13T01:29:10;18.30;61.50
40127;DHT22;25836;51.148;6.948;2023-01-13T01:29:41;18.20;61.50
40127;DHT22;25836;51.148;6.948;2023-01-13T01:30:14;18.30;61.60
40127;DHT22;25836;51.148;6.948;2023-01-13T01:30:44;18.30;61.60
40127;DHT22;25836;51.148;6.948;2023-01-13T01:31:17;18.20;61.20
40127;DHT22;25836;51.148;6.948;2023-01-13T01:31:48;18.20;61.30
40127;DHT22;25836;51.148;6.948;2023-01-13T01:32:20;18.20;61.00
40127;DHT22;25836;51.148;6.948;2023-01-13T01:32:51;18.20;61.20
40127;DHT22;25836;51.148;6.948;2023-01-13T01:33:22;18.20;61.50
40127;DHT22;25836;51.148;6.948;2023-01-13T01:33:54;18.20;61.50
40127;DHT22;25836;51.148;6.948;2023-01-13T01:34:27;18.20;61.60
40127;DHT22;25836;51.148;6.948;2023-01-13T01:34:58;18.20;61.60
40127;DHT22;25836;51.148;6.948;2023-01-13T01:35:28;18.20;61.70
40127;DHT22;25836;51.148;6.948;2023-01-13T01:36:32;18.20;60.70
40127;DHT22;25836;51.148;6.948;2023-01-13T01:37:04;18.40;61.60
40127;DHT22;25836;51.148;6.948;2023-01-13T01:37:36;18.20;61.70
40127;DHT22;25836;51.148;6.948;2023-01-13T01:38:07;18.20;61.60
40127;DHT22;25836;51.148;6.948;2023-01-13T01:38:38;18.20;62.20
40127;DHT22;25836;51.148;6.948;2023-01-13T01:39:08;18.20;62.30
40127;DHT22;25836;51.148;6.948;2023-01-13T01:39:40;18.20;62.10
40127;DHT22;25836;51.148;6.948;2023-01-13T01:40:12;18.20;61.80
40127;DHT22;25836;51.148;6.948;2023-01-13T01:41:15;18.20;60.90
40127;DHT22;25836;51.148;6.948;2023-01-13T01:42:33;18.20;60.80
40127;DHT22;25836;51.148;6.948;2023-01-13T01:43:46;18.20;61.30
40127;DHT22;25836;51.148;6.948;2023-01-13T01:45:00;18.20;61.20
40127;DHT22;25836;51.148;6.948;2023-01-13T01:45:31;18.20;61.20
40127;DHT22;25836;51.148;6.948;2023-01-13T01:46:03;18.20;61.40
40127;DHT22;25836;51.148;6.948;2023-01-13T01:46:36;18.20;61.40
40127;DHT22;25836;51.148;6.948;2023-01-13T01:47:08;18.20;61.40
40127;DHT22;25836;51.148;6.948;2023-01-13T01:47:42;18.20;61.80
40127;DHT22;25836;51.148;6.948;2023-01-13T01:48:13;18.20;61.70
40127;DHT22;25836;51.148;6.948;2023-01-13T01:48:44;18.10;61.40
40127;DHT22;25836;51.148;6.948;2023-01-13T01:49:18;18.10;60.90
40127;DHT22;25836;51.148;6.948;2023-01-13T01:49:50;18.10;61.70
40127;DHT22;25836;51.148;6.948;2023-01-13T01:50:21;18.10;61.70
40127;DHT22;25836;51.148;6.948;2023-01-13T01:50:54;18.20;61.80
40127;DHT22;25836;51.148;6.948;2023-01-13T01:51:25;18.10;60.20
40127;DHT22;25836;51.148;6.948;2023-01-13T01:52:00;18.10;60.90
40127;DHT22;25836;51.148;6.948;2023-01-13T01:52:34;18.10;61.20
40127;DHT22;25836;51.148;6.948;2023-01-13T01:53:11;18.10;61.90
40127;DHT22;25836;51.148;6.948;2023-01-13T01:53:44;18.10;61.20
40127;DHT22;25836;51.148;6.948;2023-01-13T01:54:20;18.10;61.20
40127;DHT22;25836;51.148;6.948;2023-01-13T01:54:57;18.10;60.80
40127;DHT22;25836;51.148;6.948;2023-01-13T01:55:33;18.10;60.70
40127;DHT22;25836;51.148;6.948;2023-01-13T01:56:07;18.10;61.00
40127;DHT22;25836;51.148;6.948;2023-01-13T01:56:41;18.10;61.10
40127;DHT22;25836;51.148;6.948;2023-01-13T01:57:16;18.10;61.30
40127;DHT22;25836;51.148;6.948;2023-01-13T01:57:52;18.10;61.00
40127;DHT22;25836;51.148;6.948;2023-01-13T01:58:27;18.10;60.90
40127;DHT22;25836;51.148;6.948;2023-01-13T01:58:59;18.10;61.20
40127;DHT22;25836;51.148;6.948;2023-01-13T01:59:31;18.10;61.20
40127;DHT22;25836;51.148;6.948;2023-01-13T02:00:04;18.00;61.20
40127;DHT22;25836;51.148;6.948;2023-01-13T02:00:35;18.10;61.50
40127;DHT22;25836;51.148;6.948;2023-01-13T02:01:07;18.10;61.20
40127;DHT22;25836;51.148;6.948;2023-01-13T02:01:40;18.00;61.40
40127;DHT22;25836;51.148;6.948;2023-01-13T02:02:11;18.10;60.70
40127;DHT22;25836;51.148;6.948;2023-01-13T02:02:45;18.00;60.80
40127;DHT22;25836;51.148;6.948;2023-01-13T02:03:17;18.00;60.50
40127;DHT22;25836;51.148;6.948;2023-01-13T02:03:54;18.00;60.60
40127;DHT22;25836;51.148;6.948;2023-01-13T02:04:29;18.00;60.70
40127;DHT22;25836;51.148;6.948;2023-01-13T02:05:03;18.00;61.10
40127;DHT22;25836;51.148;6.948;2023-01-13T02:05:34;18.00;60.70
40127;DHT22;25836;51.148;6.948;2023-01-13T02:06:06;18.00;61.10
40127;DHT22;25836;51.148;6.948;2023-01-13T02:06:39;18.00;61.00
40127;DHT22;25836;51.148;6.948;2023-01-13T02:07:10;18.00;60.00
40127;DHT22;25836;51.148;6.948;2023-01-13T02:07:44;18.00;59.80
40127;DHT22;25836;51.148;6.948;2023-01-13T02:08:17;18.00;60.10
40127;DHT22;25836;51.148;6.948;2023-01-13T02:08:48;18.00;59.90
40127;DHT22;25836;51.148;6.948;2023-01-13T02:09:20;18.00;60.30
40127;DHT22;25836;51.148;6.948;2023-01-13T02:09:51;18.00;60.70
40127;DHT22;25836;51.148;6.948;2023-01-13T02:10:26;17.90;60.00
40127;DHT22;25836;51.148;6.948;2023-01-13T02:10:58;18.00;60.10
40127;DHT22;25836;51.148;6.948;2023-01-13T02:11:30;18.10;60.70
40127;DHT22;25836;51.148;6.948;2023-01-13T02:12:21;18.00;60.40
40127;DHT22;25836;51.148;6.948;2023-01-13T02:13:04;18.00;60.50
40127;DHT22;25836;51.148;6.948;2023-01-13T02:13:37;18.00;59.90
40127;DHT22;25836;51.148;6.948;2023-01-13T02:14:08;18.00;60.10
40127;DHT22;25836;51.148;6.948;2023-01-13T02:14:40;18.00;60.40
40127;DHT22;25836;51.148;6.948;2023-01-13T02:15:13;18.20;60.70
40127;DHT22;25836;51.148;6.948;2023-01-13T02:15:50;18.00;60.60
40127;DHT22;25836;51.148;6.948;2023-01-13T02:16:23;17.90;60.40
40127;DHT22;25836;51.148;6.948;2023-01-13T02:17:08;18.00;60.60
40127;DHT22;25836;51.148;6.948;2023-01-13T02:18:04;18.00;59.90
40127;DHT22;25836;51.148;6.948;2023-01-13T02:18:46;18.00;60.00
40127;DHT22;25836;51.148;6.948;2023-01-13T02:19:41;18.00;60.10
40127;DHT22;25836;51.148;6.948;2023-01-13T02:20:39;17.90;59.70
40127;DHT22;25836;51.148;6.948;2023-01-13T02:22:43;17.90;59.30
40127;DHT22;25836;51.148;6.948;2023-01-13T02:23:39;17.90;60.20
40127;DHT22;25836;51.148;6.948;2023-01-13T02:24:44;17.90;60.70
40127;DHT22;25836;51.148;6.948;2023-01-13T02:25:53;17.90;60.60
40127;DHT22;25836;51.148;6.948;2023-01-13T02:27:46;17.90;60.20
40127;DHT22;25836;51.148;6.948;2023-01-13T02:29:59;17.90;60.70
40127;DHT22;25836;51.148;6.948;2023-01-13T02:30:57;17.80;60.60
40127;DHT22;25836;51.148;6.948;2023-01-13T02:31:50;17.80;60.40
40127;DHT22;25836;51.148;6.948;2023-01-13T02:32:28;17.80;60.00
40127;DHT22;25836;51.148;6.948;2023-01-13T02:33:16;17.80;59.90
40127;DHT22;25836;51.148;6.948;2023-01-13T02:34:00;17.80;60.30
40127;DHT22;25836;51.148;6.948;2023-01-13T02:34:40;17.80;60.70
40127;DHT22;25836;51.148;6.948;2023-01-13T02:35:21;17.80;60.80
40127;DHT22;25836;51.148;6.948;2023-01-13T02:35:57;17.80;60.30
40127;DHT22;25836;51.148;6.948;2023-01-13T02:36:37;17.80;59.90
40127;DHT22;25836;51.148;6.948;2023-01-13T02:37:17;17.80;60.50
40127;DHT22;25836;51.148;6.948;2023-01-13T02:37:50;17.80;61.00
40127;DHT22;25836;51.148;6.948;2023-01-13T02:38:26;17.80;60.40
40127;DHT22;25836;51.148;6.948;2023-01-13T02:39:02;17.80;60.30
40127;DHT22;25836;51.148;6.948;2023-01-13T02:39:40;17.80;60.50
40127;DHT22;25836;51.148;6.948;2023-01-13T02:40:17;17.80;60.40
40127;DHT22;25836;51.148;6.948;2023-01-13T02:40:52;17.80;60.40
40127;DHT22;25836;51.148;6.948;2023-01-13T02:41:33;17.70;59.80
40127;DHT22;25836;51.148;6.948;2023-01-13T02:42:31;17.80;59.80
40127;DHT22;25836;51.148;6.948;2023-01-13T02:43:24;17.80;60.30
40127;DHT22;25836;51.148;6.948;2023-01-13T02:44:21;17.80;60.00
40127;DHT22;25836;51.148;6.948;2023-01-13T02:45:00;17.80;59.60
40127;DHT22;25836;51.148;6.948;2023-01-13T02:45:35;17.80;60.20
40127;DHT22;25836;51.148;6.948;2023-01-13T02:46:09;17.80;60.50
40127;DHT22;25836;51.148;6.948;2023-01-13T02:46:49;17.80;60.60
40127;DHT22;25836;51.148;6.948;2023-01-13T02:47:24;17.70;60.50
40127;DHT22;25836;51.148;6.948;2023-01-13T02:47:57;18.00;60.60
40127;DHT22;25836;51.148;6.948;2023-01-13T02:48:30;17.80;60.60
40127;DHT22;25836;51.148;6.948;2023-01-13T02:49:04;17.90;60.60
40127;DHT22;25836;51.148;6.948;2023-01-13T02:49:39;17.70;60.00
40127;DHT22;25836;51.148;6.948;2023-01-13T02:50:15;17.70;60.00
40127;DHT22;25836;51.148;6.948;2023-01-13T02:50:52;17.70;59.90
40127;DHT22;25836;51.148;6.948;2023-01-13T02:51:26;17.70;59.90
40127;DHT22;25836;51.148;6.948;2023-01-13T02:52:02;17.70;59.50
40127;DHT22;25836;51.148;6.948;2023-01-13T02:52:38;17.70;59.80
40127;DHT22;25836;51.148;6.948;2023-01-13T02:53:14;17.70;59.50
40127;DHT22;25836;51.148;6.948;2023-01-13T02:53:49;17.70;59.90
40127;DHT22;25836;51.148;6.948;2023-01-13T02:54:25;17.70;60.20
40127;DHT22;25836;51.148;6.948;2023-01-13T02:55:02;17.70;60.30
40127;DHT22;25836;51.148;6.948;2023-01-13T02:55:36;17.70;59.90
40127;DHT22;25836;51.148;6.948;2023-01-13T02:56:11;17.90;60.30
40127;DHT22;25836;51.148;6.948;2023-01-13T02:56:45;17.70;61.30
40127;DHT22;25836;51.148;6.948;2023-01-13T02:57:18;17.70;60.20
40127;DHT22;25836;51.148;6.948;2023-01-13T02:57:52;17.70;60.20
40127;DHT22;25836;51.148;6.948;2023-01-13T02:58:26;17.70;59.80
40127;DHT22;25836;51.148;6.948;2023-01-13T02:58:58;17.70;59.40
40127;DHT22;25836;51.148;6.948;2023-01-13T02:59:31;17.70;59.80
40127;DHT22;25836;51.148;6.948;2023-01-13T03:00:06;17.70;60.30
40127;DHT22;25836;51.148;6.948;2023-01-13T03:00:39;17.70;59.60
40127;DHT22;25836;51.148;6.948;2023-01-13T03:01:12;17.70;59.50
40127;DHT22;25836;51.148;6.948;2023-01-13T03:01:42;17.70;59.60
40127;DHT22;25836;51.148;6.948;2023-01-13T03:02:16;17.70;59.60
40127;DHT22;25836;51.148;6.948;2023-01-13T03:02:49;17.60;59.90
40127;DHT22;25836;51.148;6.948;2023-01-13T03:03:20;17.70;59.80
40127;DHT22;25836;51.148;6.948;2023-01-13T03:03:51;17.70;59.40
40127;DHT22;25836;51.148;6.948;2023-01-13T03:04:52;17.70;59.80
40127;DHT22;25836;51.148;6.948;2023-01-13T03:05:24;17.70;60.00
40127;DHT22;25836;51.148;6.948;2023-01-13T03:06:03;17.70;60.20
40127;DHT22;25836;51.148;6.948;2023-01-13T03:06:43;17.70;59.50
40127;DHT22;25836;51.148;6.948;2023-01-13T03:07:48;17.70;59.40
40127;DHT22;25836;51.148;6.948;2023-01-13T03:08:31;17.60;59.80
40127;DHT22;25836;51.148;6.948;2023-01-13T03:09:07;17.60;60.00
40127;DHT22;25836;51.148;6.948;2023-01-13T03:09:46;17.60;59.60
40127;DHT22;25836;51.148;6.948;2023-01-13T03:11:18;17.60;59.80
40127;DHT22;25836;51.148;6.948;2023-01-13T03:12:03;17.80;59.80
40127;DHT22;25836;51.148;6.948;2023-01-13T03:12:45;17.60;59.70
40127;DHT22;25836;51.148;6.948;2023-01-13T03:13:31;17.60;59.80
40127;DHT22;25836;51.148;6.948;2023-01-13T03:14:15;17.60;60.50
40127;DHT22;25836;51.148;6.948;2023-01-13T03:14:53;17.60;60.50
40127;DHT22;25836;51.148;6.948;2023-01-13T03:15:36;17.60;59.90
40127;DHT22;25836;51.148;6.948;2023-01-13T03:16:17;17.60;59.90
40127;DHT22;25836;51.148;6.948;2023-01-13T03:17:03;17.60;59.70
40127;DHT22;25836;51.148;6.948;2023-01-13T03:17:41;17.60;59.90
40127;DHT22;25836;51.148;6.948;2023-01-13T03:18:19;17.60;60.40
40127;DHT22;25836;51.148;6.948;2023-01-13T03:19:07;17.50;60.00
40127;DHT22;25836;51.148;6.948;2023-01-13T03:19:45;16.40;59.10
40127;DHT22;25836;51.148;6.948;2023-01-13T03:20:25;17.80;59.90
40127;DHT22;25836;51.148;6.948;2023-01-13T03:21:03;17.50;60.40
40127;DHT22;25836;51.148;6.948;2023-01-13T03:21:39;17.50;60.10
40127;DHT22;25836;51.148;6.948;2023-01-13T03:22:20;17.50;59.80
40127;DHT22;25836;51.148;6.948;2023-01-13T03:22:58;17.50;60.20
40127;DHT22;25836;51.148;6.948;2023-01-13T03:23:33;17.50;60.60
40127;DHT22;25836;51.148;6.948;2023-01-13T03:24:10;17.50;60.00
40127;DHT22;25836;51.148;6.948;2023-01-13T03:24:47;17.50;59.90
40127;DHT22;25836;51.148;6.948;2023-01-13T03:25:23;17.50;60.00
40127;DHT22;25836;51.148;6.948;2023-01-13T03:26:00;17.50;60.20
40127;DHT22;25836;51.148;6.948;2023-01-13T03:26:38;17.50;59.60
40127;DHT22;25836;51.148;6.948;2023-01-13T03:27:14;17.50;59.60
40127;DHT22;25836;51.148;6.948;2023-01-13T03:27:50;17.50;59.70
40127;DHT22;25836;51.148;6.948;2023-01-13T03:28:26;17.50;59.80
40127;DHT22;25836;51.148;6.948;2023-01-13T03:29:04;17.50;60.00
40127;DHT22;25836;51.148;6.948;2023-01-13T03:29:43;17.50;60.00
40127;DHT22;25836;51.148;6.948;2023-01-13T03:30:17;17.50;60.30
40127;DHT22;25836;51.148;6.948;2023-01-13T03:30:53;17.50;60.40
40127;DHT22;25836;51.148;6.948;2023-01-13T03:31:30;17.50;60.50
40127;DHT22;25836;51.148;6.948;2023-01-13T03:32:06;17.50;60.50
40127;DHT22;25836;51.148;6.948;2023-01-13T03:32:42;17.50;60.20
40127;DHT22;25836;51.148;6.948;2023-01-13T03:33:16;17.60;60.20
40127;DHT22;25836;51.148;6.948;2023-01-13T03:33:54;17.50;60.30
40127;DHT22;25836;51.148;6.948;2023-01-13T03:34:31;17.50;60.00
40127;DHT22;25836;51.148;6.948;2023-01-13T03:35:06;17.50;59.90
40127;DHT22;25836;51.148;6.948;2023-01-13T03:35:41;17.50;60.10
40127;DHT22;25836;51.148;6.948;2023-01-13T03:36:16;17.50;60.00
40127;DHT22;25836;51.148;6.948;2023-01-13T03:36:52;17.50;59.80
40127;DHT22;25836;51.148;6.948;2023-01-13T03:37:31;17.70;59.90
40127;DHT22;25836;51.148;6.948;2023-01-13T03:38:06;17.50;60.10
40127;DHT22;25836;51.148;6.948;2023-01-13T03:38:41;17.50;60.10
40127;DHT22;25836;51.148;6.948;2023-01-13T03:39:16;17.50;60.20
40127;DHT22;25836;51.148;6.948;2023-01-13T03:39:54;17.40;59.80
40127;DHT22;25836;51.148;6.948;2023-01-13T03:40:30;17.50;60.10
40127;DHT22;25836;51.148;6.948;2023-01-13T03:41:05;17.50;60.20
40127;DHT22;25836;51.148;6.948;2023-01-13T03:41:42;17.40;60.20
40127;DHT22;25836;51.148;6.948;2023-01-13T03:42:18;17.40;60.40
40127;DHT22;25836;51.148;6.948;2023-01-13T03:42:54;17.40;60.30
40127;DHT22;25836;51.148;6.948;2023-01-13T03:43:51;17.40;60.20
40127;DHT22;25836;51.148;6.948;2023-01-13T03:44:45;17.50;59.80
40127;DHT22;25836;51.148;6.948;2023-01-13T03:45:18;17.40;59.80
40127;DHT22;25836;51.148;6.948;2023-01-13T03:45:56;17.50;59.90
40127;DHT22;25836;51.148;6.948;2023-01-13T03:46:32;17.40;60.00
40127;DHT22;25836;51.148;6.948;2023-01-13T03:47:11;17.40;60.50
40127;DHT22;25836;51.148;6.948;2023-01-13T03:47:49;17.40;60.70
40127;DHT22;25836;51.148;6.948;2023-01-13T03:48:22;17.40;60.60
40127;DHT22;25836;51.148;6.948;2023-01-13T03:48:57;17.40;60.50
40127;DHT22;25836;51.148;6.948;2023-01-13T03:49:34;17.40;60.20
40127;DHT22;25836;51.148;6.948;2023-01-13T03:50:07;17.50;59.80
40127;DHT22;25836;51.148;6.948;2023-01-13T03:50:44;17.40;59.80
40127;DHT22;25836;51.148;6.948;2023-01-13T03:51:18;17.40;60.10
40127;DHT22;25836;51.148;6.948;2023-01-13T03:51:55;17.40;60.10
40127;DHT22;25836;51.148;6.948;2023-01-13T03:52:32;17.40;61.00